This is the latest recevied weather packets stored in our database for station/object HK3BJ-11. If no packets are shown the sender has not sent any weather packets the latest 10 day(s).
| Time | Temp. | Humidity | Pressure | Rain* | Wind** | Luminosity | Snow |
|---|---|---|---|---|---|---|---|
| 1787859949 | 16.67° C | 57% | 1011 hPa | 0 mm | - | - | - |
| 1787859003 | 21.67° C | 60% | 1011 hPa | 0 mm | - | - | - |
| 1787858062 | 20.56° C | 60% | 1011 hPa | 0 mm | - | - | - |
| 1787857037 | 19.44° C | 60% | 1011 hPa | 0 mm | - | - | - |
| 1787856040 | 18.33° C | 60% | 1011 hPa | 0 mm | - | - | - |
| 1787855069 | 17.22° C | 60% | 1012 hPa | 0 mm | - | - | - |
| 1787854088 | 21.11° C | 62% | 1012 hPa | 0 mm | - | - | - |
| 1787853101 | 20° C | 62% | 1012 hPa | 0 mm | - | - | - |
| 1787852146 | 18.89° C | 62% | 1013 hPa | 0 mm | - | - | - |
| 1787851206 | 17.78° C | 62% | 1014 hPa | 0 mm | - | - | - |
| 1787850248 | 21.11° C | 65% | 1014 hPa | 0 mm | - | - | - |
| 1787849284 | 20° C | 65% | 1014 hPa | 0 mm | - | - | - |
| 1787848335 | 18.89° C | 65% | 1014 hPa | 0 mm | - | - | - |
| 1787847385 | 17.78° C | 65% | 1015 hPa | 0 mm | - | - | - |
| 1787846438 | 16.67° C | 65% | 1015 hPa | 0 mm | - | - | - |
| 1787845460 | 15.56° C | 65% | 1015 hPa | 0 mm | - | - | - |
| 1787844493 | 18.33° C | 74% | 1016 hPa | 0 mm | - | - | - |
| 1787843552 | 17.22° C | 74% | 1016 hPa | 0 mm | - | - | - |
| 1787842602 | 16.11° C | 74% | 1016 hPa | 0 mm | - | - | - |
| 1787841648 | 15° C | 74% | 1016 hPa | 0 mm | - | - | - |
| 1787840701 | 16.67° C | 87% | 1017 hPa | 0 mm | - | - | - |
| 1787839753 | 15.56° C | 87% | 1017 hPa | 0 mm | - | - | - |
| 1787838809 | 14.44° C | 87% | 1017 hPa | 0 mm | - | - | - |
| 1787837863 | 13.33° C | 87% | 1017 hPa | 0 mm | - | - | - |
| 1787836915 | 15° C | 93% | 1018 hPa | 0 mm | - | - | - |
* Rain latest hour (hover to see other rain measurements)
** Current wind speed in m/s (hover to see current wind gust speed)